Islamorada, FL

7:04 PM EDT on April 23, 2018 (GMT -0400)
Maderia Bay | | Change Station

Elev 0 ft 24.93 °N, 80.63 °W | Updated 35 seconds ago

Partly Cloudy
Partly Cloudy
81.9 °F
Feels Like 86 °F
N
1.0
Wind Variable Wind from WNW
Gusts 2.0 mph

Today
High -- | Low -- °F
--% Chance of Precip.
Yesterday
High -- | Low -- °F
Precip. -- in
Pressure 29.98 in
Visibility 9.0 miles
Clouds Mostly Cloudy 2400 ft
Overcast 2900 ft
Heat Index 86 °F
Dew Point 71 °F
Humidity 69%
Rainfall 0.00 in
Snow Depth Not available.
6:53 AM 7:48 PM
Waxing Gibbous, 62% visible
METAR KHST 232256Z AUTO 02008KT 9SM -RA BKN024 OVC029 26/23 A2997 RMK AO2 RAB47 BKN V OVC CIG 023 RWY24 SLP152 P0002 T02560225
Pressure 29.98 in
Visibility 9.0 miles
Clouds Mostly Cloudy 2400 ft
Overcast 2900 ft
Heat Index 86 °F
Dew Point 71 °F
Humidity 69%
Rainfall 0.00 in
Snow Depth Not available.
6:53 AM 7:48 PM
Waxing Gibbous, 62% visible
METAR KHST 232256Z AUTO 02008KT 9SM -RA BKN024 OVC029 26/23 A2997 RMK AO2 RAB47 BKN V OVC CIG 023 RWY24 SLP152 P0002 T02560225

Get Severe Weather Alerts

Thanks for signing up!

Be on the lookout for a verification email in your inbox.

You'll start receiving the daily forecast at 6 AM.

×

10-Day Weather Forecast

Almanac

Astronomy

Apr. 23, 2018 Rise Set
Actual Time
Civil Twilight
Nautical Twilight
Astronomical Twilight
Moon
Length of Visible Light
Length of Day
Tomorrow will be .
, % of the Moon is Illuminated

Today's Extremes

State Highs State Lows

Community

WunderPhotos

Category 6

Welcome to Category 6. This is the collective home for Weather Underground's featured writeups by Dr. Jeff Masters (right), Bob Henson (left), Chris Burt, and other regular contributors.

Nearby

Air Quality

  Air Quality AQ Index Pollutant
Not available.

Snow Depth

Station Depth Elevation

Earthquake Activity

City Distance Mag. Time & Date
Minimum magnitude displayed is 2.5.

Coastal Water Temperatures

Place Temperature

Stations

Nearby Weather Stations

Station Location Temp. Windchill Dew Point Humidity Wind Precip. Elev Updated Type
                   

Watches & Warnings

There are currently no watches in effect.